Share

Abbott, PA

Germania (KPAGALET1) Elev 2240 ft | 41.66 °N, 77.67 °W | Change Station

Current weather conditions updated 11 minutes ago

Clear
Clear
31.0 °F
Feels Like 31 °F
N
0.0
Wind Variable Wind from East
Gusts 1.0 mph
Sunrise 6:22 AM
Sunset 7:56 PM
Moon Waning Gibbous

Today is forecast to be Warmer than yesterday.

Pressure 30.43 in
Visibility 10.0 miles
Clouds Clear
Windchill 31 °F
Dew Point 25 °F
Humidity 79%
Rainfall 0.00 in
Snow Depth Not available.
UV 0 out of 16
Pollen 10.60 out of 12
Air Quality Not available.
Flu Activity Local Activity
METAR KELZ 200756Z AUTO 12004KT 10SM CLR 00/M05 A3038 RMK AO2 SLP303 T00001050

More Conditions Fewer Conditions

Pressure 30.43 in
Visibility 10.0 miles
Clouds Clear
Windchill 31 °F
Dew Point 25 °F
Humidity 79%
Rainfall 0.00 in
Snow Depth Not available.
UV 0 out of 16
Pollen 10.60 out of 12
Air Quality Not available.
Flu Activity Local Activity
METAR KELZ 200756Z AUTO 12004KT 10SM CLR 00/M05 A3038 RMK AO2 SLP303 T00001050

More Conditions Fewer Conditions

10-Day Weather Forecast

Almanac

Astronomy

Apr. 20, 2014 Rise Set
Actual Time 6:22 AM EDT 7:56 PM EDT
Civil Twilight 5:53 AM EDT 8:26 PM EDT
Nautical Twilight 5:18 AM EDT 9:01 PM EDT
Astronomical Twilight 4:40 AM EDT 9:39 PM EDT
Moon 12:36 AM EDT 10:39 AM EDT
Length of Visible Light 14h 32m
Length of Day
13h 33m
Tomorrow will be 2m 36s longer.
Waning Gibbous, 72% of the Moon is Illuminated
Today
Waning Gibbous
Apr 22
Last Quarter
Apr 29
New
May 6
First Quarter
May 14
Full

Today's Extremes

State Highs State Lows

Community

  • Sunny day at the coast-Cape Arago Lighthouse
    Sunny day at the coast-Cape Arago Lighthouse
  • Cherry Blossoms
    Cherry Blossoms
  • White-Crowned Sparrow
    White-Crowned Sparrow
  • New Day
    New Day
  • Happy Easter!
    Happy Easter!

WunderPhotos

Upload Photos

1,703,117 photos uploaded!

WunderBlogs® & News

Nearby

Snow Depth

Station Depth Elevation
No new snow has been reported.

Coastal Water Temperatures

Place Temperature
No Stations Reporting

Earthquake Activity

City Distance Mag. Time & Date
No recent earthquake activity has been reported nearby.
Minimum magnitude displayed is 2.5.

Nearby Weather Stations

Station Location Temp. Windchill Dew Point Humidity Wind Precip. Elev Updated Type
Germania, Galeton, PA 31.0 °F 31 °F 25 °F 79% East  at  0.0 mph 0.00 in / hr 2240 ft 4:06 AM EDT Normal
Slate Run, Slate Run, PA 32.3 °F 27 °F 27 °F 81% NNE  at  6.0 mph 0.00 in / hr 2428 ft 4:07 AM EDT Normal
Sweden Valley, Coudersport, PA 25.3 °F 25 °F 24 °F 95% SW  at  0.7 mph 0.00 in / hr 1796 ft 4:14 AM EDT Normal
RAWS OLD MOUNTAIN PA, Morris, PA 30 °F 30 °F 25 °F 80% NNE  at  1 mph 0.00 in / hr 1923 ft 3:16 AM EDT MADIS

Show More Stations Show Fewer Stations

What do you think?

We're not finished. Please let us know what you like, what you don't like, and what you are still missing.